Time;durP1;ratioP1;P1;durP2;ratioP2;P2;SDS_P1;SDS_P2;PMS_P1;PMS_P2;Temp;Humidity;BMP_temperature;BMP_pressure;BME280_temperature;BME280_humidity;BME280_pressure;Samples;Min_cycle;Max_cycle;Signal;HPM_P1;HPM_P2
2023/09/10 00:02:24;;;;;;;33.25;30.23;;;;;;;17.61;100.00;101653.88;6191046;23;20015;-70
2023/09/10 00:04:49;;;;;;;32.33;29.67;;;;;;;17.52;100.00;101648.81;6192120;23;20449;-70
2023/09/10 00:07:14;;;;;;;31.95;29.20;;;;;;;17.49;100.00;101648.91;6216903;23;20453;-70
2023/09/10 00:09:40;;;;;;;35.55;31.98;;;;;;;17.50;100.00;101653.28;6190579;23;20008;-70
2023/09/10 00:12:06;;;;;;;32.50;29.42;;;;;;;17.37;100.00;101644.81;6164960;23;20325;-69
2023/09/10 00:14:32;;;;;;;37.05;33.63;;;;;;;17.47;100.00;101650.72;6166442;23;20012;-69
2023/09/10 00:16:57;;;;;;;34.28;31.10;;;;;;;17.41;100.00;101651.78;6166031;22;20039;-68
2023/09/10 00:19:23;;;;;;;37.88;34.17;;;;;;;17.39;100.00;101650.06;6192562;23;20043;-68
2023/09/10 00:21:48;;;;;;;30.98;28.08;;;;;;;17.34;100.00;101652.84;6217095;23;20012;-68
2023/09/10 00:24:13;;;;;;;32.80;29.95;;;;;;;17.28;100.00;101643.28;6167130;23;20004;-69
2023/09/10 00:26:39;;;;;;;37.78;34.08;;;;;;;17.37;100.00;101642.16;6192015;23;20016;-69
2023/09/10 00:29:04;;;;;;;40.33;36.47;;;;;;;17.42;100.00;101642.03;6194056;23;20031;-68
2023/09/10 00:31:32;;;;;;;34.92;31.73;;;;;;;17.39;100.00;101647.41;6193608;23;20391;-69
2023/09/10 00:33:57;;;;;;;31.10;28.13;;;;;;;17.35;100.00;101640.47;6194702;23;20145;-69
2023/09/10 00:36:23;;;;;;;29.65;27.15;;;;;;;17.27;100.00;101638.88;6193691;23;20015;-69
2023/09/10 00:38:48;;;;;;;27.67;25.35;;;;;;;17.16;100.00;101640.97;6193335;23;20015;-69
2023/09/10 00:41:13;;;;;;;31.67;28.88;;;;;;;17.27;100.00;101638.03;6194213;23;20012;-68
2023/09/10 00:43:39;;;;;;;29.92;27.27;;;;;;;17.18;100.00;101639.13;6193771;23;20430;-69
2023/09/10 00:46:05;;;;;;;31.83;28.88;;;;;;;17.22;100.00;101632.84;6193036;23;20488;-69
2023/09/10 00:48:32;;;;;;;34.72;31.30;;;;;;;17.14;100.00;101637.50;6194002;23;20000;-68
2023/09/10 00:50:57;;;;;;;40.38;36.40;;;;;;;17.12;100.00;101636.66;6194121;23;20015;-70
2023/09/10 00:53:23;;;;;;;42.88;38.80;;;;;;;17.25;100.00;101640.69;6219126;23;20004;-69
2023/09/10 00:55:49;;;;;;;38.30;34.83;;;;;;;17.22;100.00;101638.13;6218520;23;20389;-70
2023/09/10 00:58:15;;;;;;;37.75;34.20;;;;;;;17.17;100.00;101640.06;6194262;23;20012;-69
2023/09/10 01:00:44;;;;;;;37.22;33.60;;;;;;;17.09;100.00;101640.25;6193049;23;20020;-68
2023/09/10 01:03:10;;;;;;;36.67;33.27;;;;;;;17.04;100.00;101636.84;6219242;23;20015;-69
2023/09/10 01:05:36;;;;;;;41.25;37.58;;;;;;;17.07;100.00;101638.56;6193600;23;20008;-69
2023/09/10 01:08:03;;;;;;;36.88;33.28;;;;;;;17.09;100.00;101628.78;6193331;23;20165;-69
2023/09/10 01:10:39;;;;;;;41.65;37.80;;;;;;;17.02;100.00;101637.81;6218815;23;20035;-69
2023/09/10 01:13:36;;;;;;;37.90;34.75;;;;;;;17.06;100.00;101639.47;6218879;23;20004;-71
2023/09/10 01:16:11;;;;;;;34.55;31.52;;;;;;;17.03;100.00;101634.25;6192818;23;20338;-71
2023/09/10 01:18:48;;;;;;;37.63;33.97;;;;;;;16.93;100.00;101638.91;6218416;23;20020;-70
2023/09/10 01:21:19;;;;;;;34.17;30.90;;;;;;;16.87;100.00;101639.91;6219011;23;20008;-71
2023/09/10 01:23:47;;;;;;;36.53;33.22;;;;;;;16.89;100.00;101643.41;6218187;23;20023;-71
2023/09/10 01:26:13;;;;;;;38.08;34.75;;;;;;;16.94;100.00;101635.38;6218578;23;20066;-70
2023/09/10 01:28:38;;;;;;;37.83;34.45;;;;;;;16.92;100.00;101631.88;6193536;23;20434;-71
2023/09/10 01:31:04;;;;;;;43.75;39.75;;;;;;;17.03;100.00;101643.06;6193174;23;20007;-71
2023/09/10 01:33:35;;;;;;;49.85;45.40;;;;;;;17.08;100.00;101637.63;6193695;23;20012;-71
2023/09/10 01:36:11;;;;;;;49.35;44.53;;;;;;;17.12;100.00;101640.19;6218199;23;20011;-71
2023/09/10 01:39:18;;;;;;;50.58;45.85;;;;;;;17.25;100.00;101640.69;6216908;23;20035;-71
2023/09/10 01:41:46;;;;;;;51.42;46.92;;;;;;;17.34;100.00;101634.31;6069295;23;20017;-71
2023/09/10 01:44:14;;;;;;;51.78;46.85;;;;;;;17.36;100.00;101640.41;6069799;23;20486;-71
2023/09/10 01:46:40;;;;;;;48.83;43.95;;;;;;;17.38;100.00;101645.66;6145361;23;20078;-71
2023/09/10 01:49:05;;;;;;;48.08;43.72;;;;;;;17.40;100.00;101641.22;6193473;23;20370;-70
2023/09/10 01:51:31;;;;;;;47.78;43.40;;;;;;;17.38;100.00;101635.94;6168416;23;20081;-71
2023/09/10 01:53:57;;;;;;;48.83;44.25;;;;;;;17.37;100.00;101644.81;6192818;23;21661;-71
2023/09/10 01:56:22;;;;;;;52.33;47.40;;;;;;;17.38;100.00;101640.38;6192573;23;20441;-71
2023/09/10 01:58:48;;;;;;;51.13;46.53;;;;;;;17.38;100.00;101646.53;6192834;23;20142;-71
2023/09/10 02:01:13;;;;;;;48.25;43.88;;;;;;;17.36;100.00;101647.50;6167837;23;20438;-71
2023/09/10 02:03:39;;;;;;;51.13;46.58;;;;;;;17.39;100.00;101642.13;6192822;23;20445;-71
2023/09/10 02:06:04;;;;;;;51.92;47.42;;;;;;;17.43;100.00;101647.28;6218054;23;20012;-71
2023/09/10 02:08:30;;;;;;;47.33;43.22;;;;;;;17.29;100.00;101654.75;6168293;23;20578;-71
2023/09/10 02:10:56;;;;;;;54.08;49.25;;;;;;;17.46;100.00;101654.28;6192557;23;20449;-71
2023/09/10 02:13:21;;;;;;;55.17;50.13;;;;;;;17.45;100.00;101652.53;6193867;23;20448;-71
2023/09/10 02:15:46;;;;;;;55.15;49.80;;;;;;;17.45;100.00;101652.53;6192416;23;20174;-71
2023/09/10 02:18:12;;;;;;;52.00;47.20;;;;;;;17.45;100.00;101645.44;6217672;23;20024;-71
2023/09/10 02:20:38;;;;;;;54.55;49.50;;;;;;;17.43;100.00;101647.28;6192824;23;20011;-71
2023/09/10 02:23:04;;;;;;;47.58;43.17;;;;;;;17.30;100.00;101656.50;6192106;23;20464;-71
2023/09/10 02:25:30;;;;;;;52.42;47.72;;;;;;;17.41;100.00;101650.88;6217887;23;20003;-68
2023/09/10 02:27:56;;;;;;;52.00;47.47;;;;;;;17.42;100.00;101650.84;6167357;23;20342;-69
2023/09/10 02:30:21;;;;;;;51.25;46.55;;;;;;;17.35;100.00;101643.97;6192323;23;20599;-69
2023/09/10 02:32:47;;;;;;;52.28;47.55;;;;;;;17.36;100.00;101652.81;6192497;23;20008;-69
2023/09/10 02:35:12;;;;;;;51.67;47.05;;;;;;;17.34;100.00;101646.66;6193169;23;20020;-69
2023/09/10 02:37:37;;;;;;;55.88;50.72;;;;;;;17.32;100.00;101649.34;6191483;23;20434;-69
2023/09/10 02:40:06;;;;;;;52.25;47.63;;;;;;;17.34;100.00;101654.59;6191670;23;20310;-69
2023/09/10 02:42:32;;;;;;;39.50;35.55;;;;;;;17.13;100.00;101647.19;6193529;23;20008;-68
2023/09/10 02:44:58;;;;;;;39.50;35.95;;;;;;;17.12;100.00;101649.88;6192416;23;20015;-68
2023/09/10 02:47:24;;;;;;;44.72;40.92;;;;;;;16.93;100.00;101654.78;6191807;23;20008;-69
2023/09/10 02:49:50;;;;;;;47.92;43.75;;;;;;;16.88;100.00;101652.28;6192487;23;20004;-69
2023/09/10 02:52:15;;;;;;;43.28;39.53;;;;;;;16.93;100.00;101663.59;6217741;23;20008;-69
2023/09/10 02:54:40;;;;;;;48.17;43.95;;;;;;;16.88;100.00;101661.97;6191490;23;20034;-69
2023/09/10 02:57:06;;;;;;;44.38;40.42;;;;;;;16.72;100.00;101669.38;6191882;22;20008;-68
2023/09/10 02:59:32;;;;;;;53.85;49.13;;;;;;;16.74;100.00;101660.50;6216269;23;20036;-69
2023/09/10 03:01:57;;;;;;;42.33;38.65;;;;;;;16.63;100.00;101666.03;6191782;23;20016;-69
2023/09/10 03:04:22;;;;;;;39.63;36.30;;;;;;;16.70;100.00;101663.28;6192312;23;20008;-69
2023/09/10 03:06:50;;;;;;;56.35;51.22;;;;;;;16.79;100.00;101666.56;6191191;22;20008;-69
2023/09/10 03:09:16;;;;;;;62.78;56.97;;;;;;;16.68;100.00;101660.66;6215015;23;20004;-69
2023/09/10 03:11:43;;;;;;;60.55;55.00;;;;;;;16.69;100.00;101666.81;6216472;23;20007;-69
2023/09/10 03:14:09;;;;;;;61.53;55.97;;;;;;;16.68;100.00;101665.97;6215372;23;20015;-68
2023/09/10 03:16:40;;;;;;;62.55;56.85;;;;;;;16.70;100.00;101665.94;6216573;23;20004;-69
2023/09/10 03:19:06;;;;;;;62.45;56.67;;;;;;;16.63;100.00;101657.25;6215535;23;20004;-68
2023/09/10 03:21:32;;;;;;;64.93;59.03;;;;;;;16.74;100.00;101649.94;6217091;23;20330;-68
2023/09/10 03:23:57;;;;;;;64.28;58.53;;;;;;;16.76;100.00;101653.38;6189424;23;20008;-68
2023/09/10 03:26:23;;;;;;;74.65;67.90;;;;;;;16.83;100.00;101659.41;6190688;23;20019;-68
2023/09/10 03:28:48;;;;;;;79.38;72.05;;;;;;;16.88;100.00;101649.63;6191675;23;20012;-69
2023/09/10 03:31:14;;;;;;;75.90;68.88;;;;;;;16.99;100.00;101648.47;6191069;23;20486;-70
2023/09/10 03:33:41;;;;;;;76.53;69.70;;;;;;;17.03;100.00;101650.13;6191153;23;20091;-70
2023/09/10 03:36:11;;;;;;;72.93;66.40;;;;;;;17.03;100.00;101651.00;6216729;23;20032;-68
2023/09/10 03:39:05;;;;;;;74.40;67.57;;;;;;;17.07;100.00;101649.16;6242182;22;20050;-68
2023/09/10 03:41:31;;;;;;;75.38;68.57;;;;;;;17.11;100.00;101649.03;6141378;23;20037;-69
2023/09/10 03:43:57;;;;;;;76.93;69.70;;;;;;;17.06;100.00;101644.75;6101353;23;20075;-68
2023/09/10 03:46:22;;;;;;;79.07;71.75;;;;;;;17.11;100.00;101643.72;6150274;23;20032;-71
2023/09/10 03:48:47;;;;;;;77.07;69.72;;;;;;;17.13;100.00;101646.34;6077346;23;20044;-69
2023/09/10 03:51:13;;;;;;;76.20;69.13;;;;;;;17.13;100.00;101647.19;6078011;23;20016;-70
2023/09/10 03:53:38;;;;;;;79.03;71.90;;;;;;;17.16;100.00;101640.09;6149704;23;20013;-71
2023/09/10 03:56:04;;;;;;;79.32;72.00;;;;;;;17.17;100.00;101644.47;6101797;23;20013;-71
2023/09/10 03:58:29;;;;;;;77.22;70.18;;;;;;;17.12;100.00;101649.88;6124866;23;20336;-70
2023/09/10 04:00:55;;;;;;;79.10;71.82;;;;;;;17.22;100.00;101643.44;6076553;23;20356;-70
2023/09/10 04:03:20;;;;;;;78.60;71.53;;;;;;;17.17;100.00;101645.34;6077160;23;20402;-71
2023/09/10 04:05:46;;;;;;;78.95;71.50;;;;;;;17.16;100.00;101640.09;6077849;23;20020;-71
2023/09/10 04:08:11;;;;;;;79.35;72.03;;;;;;;17.17;100.00;101632.09;6150510;23;20074;-69
2023/09/10 04:10:37;;;;;;;79.40;71.97;;;;;;;17.11;100.00;101633.13;6100925;23;20017;-69
2023/09/10 04:13:03;;;;;;;80.00;72.68;;;;;;;17.07;100.00;101628.84;6102535;23;20016;-69
2023/09/10 04:15:29;;;;;;;75.35;68.35;;;;;;;17.04;100.00;101635.97;6125739;23;20071;-70
2023/09/10 04:17:54;;;;;;;76.20;69.20;;;;;;;17.04;100.00;101634.22;6102251;23;20094;-68
2023/09/10 04:20:21;;;;;;;75.60;68.85;;;;;;;17.02;100.00;101627.22;6192206;23;20011;-69
2023/09/10 04:22:47;;;;;;;77.88;70.65;;;;;;;16.95;100.00;101637.97;6191990;23;20454;-69
2023/09/10 04:25:12;;;;;;;79.15;71.55;;;;;;;16.92;100.00;101638.06;6191165;23;20004;-69
2023/09/10 04:27:38;;;;;;;82.18;74.40;;;;;;;17.02;100.00;101633.38;6190570;23;20015;-69
2023/09/10 04:30:04;;;;;;;80.47;73.13;;;;;;;16.93;100.00;101625.69;6190952;23;20031;-71
2023/09/10 04:32:33;;;;;;;81.60;74.28;;;;;;;17.00;100.00;101629.03;6191241;23;20036;-70
2023/09/10 04:34:58;;;;;;;82.40;74.72;;;;;;;16.92;100.00;101630.09;6191996;23;20012;-68
2023/09/10 04:37:23;;;;;;;82.25;74.60;;;;;;;16.99;100.00;101630.81;6165919;23;20451;-69
2023/09/10 04:39:51;;;;;;;83.78;76.10;;;;;;;16.90;100.00;101639.00;6191100;23;20019;-69
2023/09/10 04:42:16;;;;;;;85.95;78.15;;;;;;;16.89;100.00;101632.81;6192257;23;20311;-69
2023/09/10 04:44:42;;;;;;;84.03;76.20;;;;;;;16.96;100.00;101633.53;6191110;23;20187;-69
2023/09/10 04:47:07;;;;;;;86.78;78.15;;;;;;;16.95;100.00;101635.31;6215735;23;20393;-69
2023/09/10 04:49:33;;;;;;;86.93;78.82;;;;;;;16.94;100.00;101636.22;6191606;23;20427;-70
2023/09/10 04:51:58;;;;;;;84.85;77.03;;;;;;;16.89;100.00;101640.75;6190834;23;20015;-69
2023/09/10 04:54:24;;;;;;;85.30;77.38;;;;;;;16.91;100.00;101641.59;6190271;23;20008;-69
2023/09/10 04:56:53;;;;;;;89.47;81.35;;;;;;;16.88;100.00;101639.03;6191788;22;20039;-68
2023/09/10 04:59:19;;;;;;;87.67;79.50;;;;;;;16.93;100.00;101639.78;6215655;23;20031;-69
2023/09/10 05:01:45;;;;;;;84.95;77.00;;;;;;;16.86;100.00;101638.16;6214884;23;20314;-69
2023/09/10 05:04:10;;;;;;;89.45;81.10;;;;;;;16.88;100.00;101644.34;6216263;23;20094;-69
2023/09/10 05:06:36;;;;;;;88.70;80.13;;;;;;;16.85;100.00;101641.72;6190021;23;20456;-69
2023/09/10 05:09:01;;;;;;;89.75;81.57;;;;;;;16.87;100.00;101634.59;6189568;23;20386;-69
2023/09/10 05:11:26;;;;;;;90.30;81.65;;;;;;;16.84;100.00;101634.69;6190078;23;20036;-69
2023/09/10 05:13:52;;;;;;;90.82;82.05;;;;;;;16.84;100.00;101639.97;6192411;23;20069;-69
2023/09/10 05:16:18;;;;;;;87.15;79.32;;;;;;;16.91;100.00;101641.59;6193294;23;20019;-71
2023/09/10 05:18:43;;;;;;;87.95;79.78;;;;;;;17.03;100.00;101650.13;6189733;23;20008;-69
2023/09/10 05:21:09;;;;;;;84.95;77.15;;;;;;;17.02;100.00;101649.25;6218482;23;20015;-70
2023/09/10 05:23:34;;;;;;;85.60;77.95;;;;;;;17.08;100.00;101642.94;6192905;23;20012;-70
2023/09/10 05:26:03;;;;;;;88.60;80.90;;;;;;;17.10;100.00;101662.31;6168650;23;20012;-71
2023/09/10 05:28:31;;;;;;;84.35;76.97;;;;;;;17.14;100.00;101656.03;6167680;23;20412;-70
2023/09/10 05:31:02;;;;;;;83.50;75.80;;;;;;;17.17;100.00;101658.59;6217535;23;20031;-71
2023/09/10 05:33:28;;;;;;;80.10;73.03;;;;;;;17.30;100.00;101656.50;6192653;23;20323;-70
2023/09/10 05:35:55;;;;;;;79.88;72.72;;;;;;;17.33;100.00;101655.53;6192074;23;20039;-71
2023/09/10 05:38:20;;;;;;;81.60;74.45;;;;;;;17.34;100.00;101647.56;6167362;23;20434;-71
2023/09/10 05:40:46;;;;;;;79.53;72.45;;;;;;;17.31;100.00;101650.25;6193038;23;20019;-71
2023/09/10 05:43:11;;;;;;;78.63;71.72;;;;;;;17.40;100.00;101659.75;6192883;23;20429;-69
2023/09/10 05:45:38;;;;;;;80.03;73.07;;;;;;;17.50;100.00;101653.28;6192248;23;20071;-69
2023/09/10 05:48:03;;;;;;;78.65;71.35;;;;;;;17.62;100.00;101652.94;6191679;23;20012;-69
2023/09/10 05:50:29;;;;;;;74.28;67.60;;;;;;;17.59;100.00;101653.03;6167811;23;20394;-69
2023/09/10 05:52:56;;;;;;;78.25;70.93;;;;;;;17.71;100.00;101659.75;6190960;23;20012;-70
2023/09/10 05:55:25;;;;;;;78.05;71.13;;;;;;;17.87;100.00;101659.31;6193015;23;20011;-71
2023/09/10 05:57:52;;;;;;;75.45;68.65;;;;;;;17.96;100.00;101659.94;6216597;23;20432;-71
2023/09/10 06:00:18;;;;;;;74.28;67.53;;;;;;;18.13;100.00;101655.91;6166980;23;20093;-71
2023/09/10 06:02:43;;;;;;;71.80;65.60;;;;;;;18.31;100.00;101663.31;6192045;23;20054;-71
2023/09/10 06:05:09;;;;;;;74.40;67.80;;;;;;;18.47;100.00;101666.34;6192103;23;20150;-71
2023/09/10 06:07:34;;;;;;;69.70;63.58;;;;;;;18.82;100.00;101672.31;6216478;23;20018;-71
2023/09/10 06:10:00;;;;;;;67.95;61.83;;;;;;;19.37;100.00;101669.56;6191188;23;20091;-71
2023/09/10 06:12:25;;;;;;;65.15;59.45;;;;;;;19.83;100.00;101667.06;6166897;23;20011;-72
2023/09/10 06:14:51;;;;;;;61.83;56.33;;;;;;;20.62;96.68;101682.63;6192600;23;20016;-71
2023/09/10 06:17:17;;;;;;;58.72;53.50;;;;;;;21.14;94.70;101678.75;6191868;23;20004;-71
2023/09/10 06:19:42;;;;;;;58.90;53.42;;;;;;;21.64;92.34;101673.03;6191632;23;20100;-70
2023/09/10 06:22:08;;;;;;;54.88;49.80;;;;;;;22.15;86.53;101674.22;6192863;23;20111;-69
2023/09/10 06:24:36;;;;;;;56.00;50.60;;;;;;;22.43;85.38;101672.94;6191414;23;20004;-69
2023/09/10 06:27:02;;;;;;;55.95;50.70;;;;;;;23.28;83.50;101686.56;6192249;22;20091;-69
2023/09/10 06:29:27;;;;;;;55.13;50.33;;;;;;;23.33;83.22;101681.81;6216823;23;20059;-69
2023/09/10 06:31:53;;;;;;;52.58;47.92;;;;;;;23.57;79.85;101686.84;6191315;23;20421;-69
2023/09/10 06:34:18;;;;;;;52.50;47.50;;;;;;;24.50;76.23;101691.56;6192193;23;20023;-69
2023/09/10 06:36:43;;;;;;;50.35;45.72;;;;;;;25.12;72.92;101690.66;6190725;22;20445;-69
2023/09/10 06:39:09;;;;;;;48.97;44.72;;;;;;;25.45;71.12;101688.75;6190033;23;20107;-69
2023/09/10 06:41:34;;;;;;;47.50;43.13;;;;;;;25.62;69.47;101698.47;6166720;23;20430;-69
2023/09/10 06:44:00;;;;;;;48.92;44.72;;;;;;;25.82;67.82;101695.38;6191340;23;20016;-71
2023/09/10 06:55:28;;;;;;;46.88;42.85;;;;;;;27.21;62.83;101696.22;6234878;22;20375;-67
2023/09/10 06:57:55;;;;;;;46.47;42.22;;;;;;;27.77;62.37;101704.03;6201485;22;20024;-67
2023/09/10 07:00:20;;;;;;;46.42;41.85;;;;;;;27.90;60.22;101701.31;6162209;22;20009;-68
2023/09/10 07:02:46;;;;;;;47.53;42.95;;;;;;;28.55;58.87;101702.91;6244935;22;20012;-67
2023/09/10 07:05:11;;;;;;;45.90;41.78;;;;;;;28.78;58.11;101703.03;6235047;22;20018;-67
2023/09/10 07:07:37;;;;;;;46.17;42.08;;;;;;;28.75;57.34;101700.56;6239439;22;20019;-67
2023/09/10 07:12:51;;;;;;;44.88;40.88;;;;;;;28.74;55.10;101704.25;6212545;22;20474;-67
2023/09/10 07:15:16;;;;;;;44.92;40.88;;;;;;;29.27;55.54;101702.00;6160529;23;20013;-70
2023/09/10 07:17:42;;;;;;;44.88;40.92;;;;;;;29.54;55.58;101708.91;6180070;23;20080;-66
2023/09/10 07:20:11;;;;;;;43.00;39.20;;;;;;;27.98;56.41;101707.91;6181957;23;20061;-67
2023/09/10 07:22:37;;;;;;;45.00;40.97;;;;;;;26.88;60.50;101711.91;6181332;23;20015;-67
2023/09/10 07:30:07;;;;;;;45.55;41.50;;;;;;;25.80;66.90;101708.03;6301966;22;20023;-67
2023/09/10 07:32:33;;;;;;;46.42;42.00;;;;;;;25.71;67.63;101706.78;6251599;22;20107;-69
2023/09/10 07:34:59;;;;;;;46.00;41.80;;;;;;;25.41;68.82;101713.09;6224204;22;20036;-69
2023/09/10 07:37:25;;;;;;;45.40;41.45;;;;;;;25.16;68.18;101712.81;6209302;22;20020;-68
2023/09/10 07:39:50;;;;;;;47.05;42.75;;;;;;;25.09;70.37;101712.31;6197386;23;20488;-68
2023/09/10 07:42:16;;;;;;;47.38;43.13;;;;;;;25.13;72.19;101711.19;6217170;22;20024;-69
2023/09/10 07:44:41;;;;;;;46.00;41.78;;;;;;;25.18;71.26;101714.44;6211440;23;20095;-68
2023/09/10 07:47:56;;;;;;;46.42;41.75;;;;;;;25.75;71.34;101710.16;6214277;22;20015;-69
2023/09/10 07:50:57;;;;;;;44.90;40.83;;;;;;;26.04;71.35;101710.16;6239426;23;20035;-69
2023/09/10 07:53:38;;;;;;;41.25;37.40;;;;;;;25.61;70.74;101712.81;6242387;23;20015;-69
2023/09/10 07:56:29;;;;;;;42.17;38.20;;;;;;;25.40;71.85;101716.72;6243310;22;20337;-69
2023/09/10 07:58:54;;;;;;;42.08;38.20;;;;;;;25.62;71.01;101707.38;6242822;22;20079;-69
2023/09/10 08:01:20;;;;;;;41.47;37.67;;;;;;;25.42;71.29;101713.94;6191364;23;20012;-69
2023/09/10 08:03:45;;;;;;;40.47;36.78;;;;;;;25.28;69.13;101713.91;6191747;23;20453;-69
2023/09/10 08:06:11;;;;;;;39.53;35.88;;;;;;;25.39;69.59;101720.38;6241687;23;20012;-68
2023/09/10 08:08:36;;;;;;;40.30;36.58;;;;;;;25.38;70.10;101720.47;6238935;22;20004;-69
2023/09/10 08:11:01;;;;;;;38.17;34.72;;;;;;;25.16;71.68;101735.13;6214566;23;20437;-68
2023/09/10 08:13:27;;;;;;;37.63;34.38;;;;;;;25.11;70.86;101723.78;6215469;23;20429;-69
2023/09/10 08:15:52;;;;;;;38.85;35.30;;;;;;;24.87;71.88;101721.63;6190367;23;20138;-69
2023/09/10 08:18:18;;;;;;;38.28;34.80;;;;;;;24.88;72.12;101725.16;6213755;23;20580;-69
2023/09/10 08:20:44;;;;;;;38.13;34.40;;;;;;;25.06;72.64;101724.06;6240826;23;20133;-68
2023/09/10 08:23:10;;;;;;;37.22;33.72;;;;;;;25.03;73.51;101723.41;6214510;23;20469;-69
2023/09/10 08:25:36;;;;;;;37.95;34.42;;;;;;;25.14;71.75;101726.31;6243239;22;20000;-68
2023/09/10 08:28:02;;;;;;;37.90;34.17;;;;;;;25.26;72.45;101716.66;6239795;22;20381;-68
2023/09/10 08:30:28;;;;;;;37.65;34.05;;;;;;;25.24;73.52;101718.56;6240713;23;20000;-68
2023/09/10 08:32:54;;;;;;;36.45;33.08;;;;;;;25.41;72.91;101712.22;6216100;23;20411;-68
2023/09/10 08:35:20;;;;;;;35.22;32.10;;;;;;;25.32;72.47;101713.66;6215903;23;20092;-69
2023/09/10 08:37:46;;;;;;;36.70;33.45;;;;;;;25.61;75.45;101702.09;6243335;22;20008;-69
2023/09/10 08:40:12;;;;;;;34.70;31.55;;;;;;;25.44;71.72;101706.66;6215361;23;20009;-68
2023/09/10 08:43:08;;;;;;;34.83;31.42;;;;;;;25.50;72.21;101709.00;6187220;23;20020;-69
2023/09/10 08:45:34;;;;;;;33.95;30.42;;;;;;;25.50;72.95;101705.41;6242064;23;20142;-69
2023/09/10 08:48:00;;;;;;;35.75;32.25;;;;;;;25.70;73.14;101705.06;6218058;23;20012;-68
2023/09/10 08:50:27;;;;;;;31.17;28.05;;;;;;;25.80;72.56;101705.34;6218105;23;20015;-69
2023/09/10 08:52:54;;;;;;;31.13;28.05;;;;;;;25.77;70.89;101710.91;6244722;23;20142;-69
2023/09/10 08:55:20;;;;;;;29.05;26.25;;;;;;;25.82;70.57;101705.28;6243873;23;20000;-69
2023/09/10 08:57:46;;;;;;;30.33;27.23;;;;;;;26.08;73.28;101711.69;6218481;23;20087;-69
2023/09/10 09:00:12;;;;;;;28.92;25.90;;;;;;;26.10;70.46;101709.78;6218156;23;20077;-69
2023/09/10 09:02:43;;;;;;;26.08;23.67;;;;;;;26.22;69.87;101710.78;6218961;23;20028;-69
2023/09/10 09:05:09;;;;;;;27.20;24.40;;;;;;;26.27;70.93;101711.38;6244802;23;20014;-69
2023/09/10 09:07:45;;;;;;;27.40;24.70;;;;;;;26.36;71.92;101715.28;6219041;23;20027;-68
2023/09/10 09:10:17;;;;;;;27.30;24.75;;;;;;;26.51;70.65;101714.28;6243590;23;20005;-68
2023/09/10 09:12:44;;;;;;;24.77;22.27;;;;;;;26.55;68.81;101710.44;6244787;23;20066;-68
2023/09/10 09:15:13;;;;;;;23.60;21.33;;;;;;;26.58;69.77;101709.41;6244399;23;20442;-68
2023/09/10 09:17:40;;;;;;;24.93;21.97;;;;;;;26.63;69.32;101702.72;6244210;22;20130;-69
2023/09/10 09:20:11;;;;;;;22.52;20.15;;;;;;;26.60;67.88;101702.94;6243828;23;20012;-68
2023/09/10 09:22:42;;;;;;;20.75;18.65;;;;;;;26.62;67.38;101711.78;6244353;23;20012;-69
2023/09/10 09:25:08;;;;;;;21.15;18.83;;;;;;;26.59;66.77;101706.59;6244090;23;20058;-68
2023/09/10 09:27:36;;;;;;;21.85;19.65;;;;;;;26.84;68.10;101699.63;6193937;23;20016;-69
2023/09/10 09:30:06;;;;;;;23.67;18.50;;;;;;;26.90;68.12;101698.34;6244060;23;20000;-68
2023/09/10 09:32:37;;;;;;;19.52;17.67;;;;;;;26.97;68.43;101702.34;6219377;23;20011;-68
2023/09/10 09:35:03;;;;;;;17.98;16.10;;;;;;;27.15;67.90;101705.59;6244554;23;20000;-68
2023/09/10 09:37:32;;;;;;;20.88;16.25;;;;;;;27.16;66.42;101696.56;6244157;22;20004;-68
2023/09/10 09:40:03;;;;;;;19.67;17.57;;;;;;;27.20;65.65;101697.22;6217634;23;20012;-69
2023/09/10 09:42:28;;;;;;;18.70;16.23;;;;;;;27.39;67.25;101699.53;6194447;23;20410;-68
2023/09/10 09:44:54;;;;;;;18.45;16.20;;;;;;;27.43;66.10;101695.66;6218620;23;20044;-69
2023/09/10 09:47:20;;;;;;;19.02;17.00;;;;;;;27.52;65.92;101700.38;6242893;22;20039;-69
2023/09/10 09:49:47;;;;;;;25.13;18.75;;;;;;;27.64;64.17;101699.53;6218955;23;20078;-69
2023/09/10 09:52:13;;;;;;;18.17;15.50;;;;;;;27.76;64.64;101692.41;6244246;23;20091;-69
2023/09/10 09:54:39;;;;;;;20.77;16.58;;;;;;;27.82;64.67;101681.19;6218329;23;20141;-69
2023/09/10 09:57:05;;;;;;;17.58;14.13;;;;;;;27.95;66.27;101688.38;6243880;22;20011;-69
2023/09/10 09:59:38;;;;;;;19.13;14.23;;;;;;;27.99;64.15;101688.09;6218133;23;20062;-69
2023/09/10 10:02:04;;;;;;;15.70;12.57;;;;;;;28.18;63.39;101681.34;6243782;23;20008;-68
2023/09/10 10:04:33;;;;;;;16.35;11.65;;;;;;;28.05;62.10;101680.53;6243404;23;20003;-68
2023/09/10 10:07:00;;;;;;;16.03;11.43;;;;;;;28.09;64.37;101682.03;6218259;22;20008;-68
2023/09/10 10:09:37;;;;;;;13.82;11.13;;;;;;;28.20;64.57;101682.09;6243326;23;20035;-68
2023/09/10 10:12:04;;;;;;;14.15;12.10;;;;;;;28.21;64.62;101678.44;6244052;23;20075;-68
2023/09/10 10:14:31;;;;;;;16.65;11.73;;;;;;;28.14;62.69;101672.66;6243057;23;20000;-68
2023/09/10 10:16:59;;;;;;;15.80;12.07;;;;;;;28.26;62.16;101672.69;6243094;22;20074;-67
2023/09/10 10:19:25;;;;;;;15.38;13.65;;;;;;;28.26;64.20;101678.09;6243629;23;20008;-67
2023/09/10 10:21:55;;;;;;;13.73;11.80;;;;;;;28.23;62.49;101679.19;6243326;23;20474;-67
2023/09/10 10:24:21;;;;;;;15.20;11.93;;;;;;;28.42;63.42;101675.13;6243087;23;20087;-68
2023/09/10 10:26:48;;;;;;;14.07;11.57;;;;;;;28.33;61.21;101668.56;6218443;22;20015;-67
2023/09/10 10:29:16;;;;;;;15.30;10.90;;;;;;;28.49;63.42;101669.16;6218082;23;20463;-67
2023/09/10 10:31:44;;;;;;;14.30;10.75;;;;;;;28.55;60.89;101675.94;6242097;23;20016;-67
2023/09/10 10:34:21;;;;;;;14.43;9.38;;;;;;;28.81;63.25;101676.69;6218696;23;20018;-67
2023/09/10 10:37:15;;;;;;;12.85;10.05;;;;;;;28.92;63.18;101678.56;6242076;22;20019;-67
2023/09/10 10:40:05;;;;;;;16.98;11.75;;;;;;;28.96;61.71;101677.34;6242814;23;20008;-67
2023/09/10 10:42:51;;;;;;;16.98;11.05;;;;;;;28.99;62.04;101666.34;6242930;23;20342;-67
2023/09/10 10:45:18;;;;;;;11.95;9.52;;;;;;;28.81;60.18;101660.50;6216373;23;20008;-68
2023/09/10 10:47:48;;;;;;;13.48;10.38;;;;;;;28.86;63.16;101657.44;6192890;23;20019;-67
2023/09/10 10:50:27;;;;;;;15.73;10.63;;;;;;;28.83;60.79;101665.78;6218610;23;20453;-67
2023/09/10 10:52:59;;;;;;;13.25;9.80;;;;;;;28.88;62.09;101663.59;6243544;23;20004;-67
2023/09/10 10:55:26;;;;;;;14.45;9.18;;;;;;;28.86;60.50;101658.31;6214776;23;20096;-68
2023/09/10 10:57:54;;;;;;;15.30;9.52;;;;;;;28.96;59.11;101658.44;6240922;22;20010;-67
2023/09/10 11:00:21;;;;;;;15.98;8.95;;;;;;;29.09;59.33;101652.09;6242826;23;20008;-68
2023/09/10 11:03:13;;;;;;;13.63;8.80;;;;;;;29.33;62.04;101644.81;6240485;23;20008;-67
2023/09/10 11:05:54;;;;;;;13.10;8.82;;;;;;;29.30;60.19;101653.16;6242986;23;20087;-67
2023/09/10 11:08:34;;;;;;;11.65;8.05;;;;;;;29.31;59.85;101649.50;6243048;22;20004;-67
2023/09/10 11:11:01;;;;;;;9.90;7.43;;;;;;;29.34;58.81;101638.44;6242583;23;20311;-67
2023/09/10 11:13:27;;;;;;;18.02;7.75;;;;;;;29.44;59.81;101643.97;6217224;23;20008;-68
2023/09/10 11:16:05;;;;;;;11.65;8.15;;;;;;;29.54;60.67;101644.13;6243496;22;20008;-71
2023/09/10 11:18:37;;;;;;;12.85;8.15;;;;;;;29.53;59.31;101632.44;6239210;22;20284;-69
2023/09/10 11:21:11;;;;;;;11.57;7.65;;;;;;;29.54;60.80;101639.56;6242048;23;20004;-70
2023/09/10 11:24:01;;;;;;;13.25;6.57;;;;;;;29.57;57.65;101632.19;6241932;23;20031;-69
2023/09/10 11:26:29;;;;;;;9.05;7.30;;;;;;;29.88;59.33;101638.69;6242659;23;20000;-69